Time;durP1;ratioP1;P1;durP2;ratioP2;P2;SDS_P1;SDS_P2;PMS_P1;PMS_P2;Temp;Humidity;BMP_temperature;BMP_pressure;BME280_temperature;BME280_humidity;BME280_pressure;Samples;Min_cycle;Max_cycle;Signal;HPM_P1;HPM_P2
2022/06/29 00:00:25;;;;;;;1.13;1.10;;;;;;;;;;5092914;28;20283;-79
2022/06/29 00:02:53;;;;;;;3.08;0.90;;;;;;;;;;5093204;28;20287;-78
2022/06/29 00:05:23;;;;;;;1.15;0.90;;;;;;;;;;5093528;28;20294;-80
2022/06/29 00:07:52;;;;;;;0.95;0.93;;;;;;;;;;5092876;28;20332;-81
2022/06/29 00:10:20;;;;;;;0.80;0.80;;;;;;;;;;5093394;28;20294;-79
2022/06/29 00:12:50;;;;;;;1.13;1.13;;;;;;;;;;5090904;28;20200;-78
2022/06/29 00:15:19;;;;;;;1.23;0.98;;;;;;;;;;5092975;28;20295;-79
2022/06/29 00:17:48;;;;;;;0.90;0.90;;;;;;;;;;5110774;22;20238;-78
2022/06/29 00:20:16;;;;;;;0.80;0.80;;;;;;;;;;5052330;28;20206;-78
2022/06/29 00:22:46;;;;;;;1.05;1.05;;;;;;;;;;5051612;28;20197;-77
2022/06/29 00:25:15;;;;;;;0.90;0.90;;;;;;;;;;5052157;28;20288;-78
2022/06/29 00:27:44;;;;;;;0.90;0.90;;;;;;;;;;5051834;28;20288;-78
2022/06/29 00:30:14;;;;;;;1.05;1.05;;;;;;;;;;5051846;28;20210;-78
2022/06/29 00:32:42;;;;;;;0.82;0.82;;;;;;;;;;5051372;28;20234;-78
2022/06/29 00:35:12;;;;;;;0.77;0.77;;;;;;;;;;5052140;28;20288;-77
2022/06/29 00:37:39;;;;;;;1.25;0.90;;;;;;;;;;5051637;28;20293;-78
2022/06/29 00:40:08;;;;;;;0.70;0.70;;;;;;;;;;5052131;28;20205;-78
2022/06/29 00:42:36;;;;;;;0.80;0.80;;;;;;;;;;5052353;28;20669;-79
2022/06/29 00:45:04;;;;;;;0.80;0.80;;;;;;;;;;5053371;28;20292;-80
2022/06/29 00:47:33;;;;;;;1.23;1.15;;;;;;;;;;5054490;28;20214;-79
2022/06/29 00:50:01;;;;;;;0.90;0.90;;;;;;;;;;5052689;28;20288;-80
2022/06/29 00:52:28;;;;;;;0.93;0.93;;;;;;;;;;5050632;28;20227;-79
2022/06/29 00:54:58;;;;;;;0.80;0.80;;;;;;;;;;5052211;28;20289;-79
2022/06/29 00:57:27;;;;;;;1.00;1.00;;;;;;;;;;5051053;28;20292;-79
2022/06/29 00:59:57;;;;;;;0.80;0.80;;;;;;;;;;5051651;28;20769;-79
2022/06/29 01:02:28;;;;;;;1.13;1.08;;;;;;;;;;5050967;28;20207;-79
2022/06/29 01:04:57;;;;;;;0.98;0.98;;;;;;;;;;5051733;28;20688;-79
2022/06/29 01:07:27;;;;;;;0.70;0.70;;;;;;;;;;5051463;28;20229;-79
2022/06/29 01:09:55;;;;;;;0.90;0.90;;;;;;;;;;5051466;28;20212;-79
2022/06/29 01:12:23;;;;;;;0.90;0.90;;;;;;;;;;5050041;28;20315;-79
2022/06/29 01:14:53;;;;;;;0.90;0.90;;;;;;;;;;5051675;28;20307;-79
2022/06/29 01:17:22;;;;;;;0.90;0.90;;;;;;;;;;5051497;28;20240;-79
2022/06/29 01:19:50;;;;;;;1.05;1.00;;;;;;;;;;5051433;28;20321;-79
2022/06/29 01:22:21;;;;;;;0.95;0.80;;;;;;;;;;5050867;28;20198;-79
2022/06/29 01:24:49;;;;;;;0.80;0.80;;;;;;;;;;5051819;28;20237;-79
2022/06/29 01:27:19;;;;;;;1.00;1.00;;;;;;;;;;5051810;28;20197;-79
2022/06/29 01:29:46;;;;;;;1.08;1.08;;;;;;;;;;5051746;28;20312;-79
2022/06/29 01:32:14;;;;;;;1.20;1.10;;;;;;;;;;5050230;28;20680;-79
2022/06/29 01:34:42;;;;;;;1.70;0.98;;;;;;;;;;5051592;28;20197;-79
2022/06/29 01:37:10;;;;;;;0.95;0.95;;;;;;;;;;5051295;28;20205;-79
2022/06/29 01:39:39;;;;;;;1.08;0.98;;;;;;;;;;5051824;28;20313;-79
2022/06/29 01:42:08;;;;;;;1.13;1.13;;;;;;;;;;5050551;28;20285;-79
2022/06/29 01:44:37;;;;;;;0.80;0.80;;;;;;;;;;5051167;28;20206;-79
2022/06/29 01:47:05;;;;;;;1.20;1.10;;;;;;;;;;5051567;28;20229;-79
2022/06/29 01:49:33;;;;;;;0.90;0.90;;;;;;;;;;5051509;28;20229;-79
2022/06/29 01:52:00;;;;;;;1.00;1.00;;;;;;;;;;5054145;28;20320;-79
2022/06/29 01:54:28;;;;;;;1.00;0.98;;;;;;;;;;5055128;28;20296;-79
2022/06/29 01:56:57;;;;;;;0.90;0.90;;;;;;;;;;5054736;28;20244;-79
2022/06/29 01:59:24;;;;;;;0.98;0.98;;;;;;;;;;5054855;28;20342;-79
2022/06/29 02:01:52;;;;;;;1.05;1.05;;;;;;;;;;5054105;28;20296;-79
2022/06/29 02:04:19;;;;;;;1.88;1.23;;;;;;;;;;5054905;28;20237;-79
2022/06/29 02:06:47;;;;;;;1.02;0.90;;;;;;;;;;5054615;28;20256;-79
2022/06/29 02:09:14;;;;;;;0.98;0.90;;;;;;;;;;5054199;28;20301;-79
2022/06/29 02:11:42;;;;;;;0.68;0.68;;;;;;;;;;5052997;28;20312;-80
2022/06/29 02:14:13;;;;;;;1.00;1.00;;;;;;;;;;5054289;28;20290;-79
2022/06/29 02:16:40;;;;;;;0.60;0.60;;;;;;;;;;5054648;28;20618;-79
2022/06/29 02:19:08;;;;;;;0.80;0.80;;;;;;;;;;5054973;28;20320;-79
2022/06/29 02:21:35;;;;;;;0.75;0.75;;;;;;;;;;5053989;28;20237;-79
2022/06/29 02:24:03;;;;;;;0.60;0.60;;;;;;;;;;5053883;28;20263;-79
2022/06/29 02:26:31;;;;;;;0.70;0.70;;;;;;;;;;5054306;28;20194;-79
2022/06/29 02:28:58;;;;;;;0.80;0.80;;;;;;;;;;5054201;28;20218;-79
2022/06/29 02:36:57;;;;;;;0.95;0.90;;;;;;;;;;5054485;28;20204;-79
2022/06/29 02:39:25;;;;;;;0.95;0.95;;;;;;;;;;5054230;28;20320;-79
2022/06/29 02:41:52;;;;;;;0.88;0.88;;;;;;;;;;5053201;28;20201;-79
2022/06/29 02:44:20;;;;;;;0.93;0.93;;;;;;;;;;5053773;28;20580;-79
2022/06/29 02:46:48;;;;;;;1.02;0.80;;;;;;;;;;5053741;28;20292;-79
2022/06/29 02:49:16;;;;;;;0.50;0.50;;;;;;;;;;5054165;28;20279;-79
2022/06/29 02:51:43;;;;;;;0.85;0.85;;;;;;;;;;5053005;28;20209;-77
2022/06/29 02:54:11;;;;;;;0.90;0.90;;;;;;;;;;5053713;28;20200;-79
2022/06/29 02:56:38;;;;;;;1.02;1.02;;;;;;;;;;5053550;28;20241;-79
2022/06/29 02:59:06;;;;;;;0.80;0.80;;;;;;;;;;5053788;28;20313;-79
2022/06/29 03:01:33;;;;;;;1.23;1.13;;;;;;;;;;5052264;28;20249;-79
2022/06/29 03:04:02;;;;;;;1.05;1.05;;;;;;;;;;5053133;28;20281;-79
2022/06/29 03:06:30;;;;;;;1.10;1.10;;;;;;;;;;5053697;28;20208;-79
2022/06/29 03:08:57;;;;;;;0.82;0.82;;;;;;;;;;5053438;28;20264;-79
2022/06/29 03:11:25;;;;;;;1.00;1.00;;;;;;;;;;5052328;28;20284;-79
2022/06/29 03:13:52;;;;;;;1.73;1.08;;;;;;;;;;5052322;28;20230;-79
2022/06/29 03:16:20;;;;;;;0.90;0.90;;;;;;;;;;5053597;28;20665;-79
2022/06/29 03:18:48;;;;;;;0.77;0.77;;;;;;;;;;5053546;28;20290;-79
2022/06/29 03:21:17;;;;;;;1.15;0.80;;;;;;;;;;5053071;28;20688;-78
2022/06/29 03:23:44;;;;;;;0.90;0.90;;;;;;;;;;5052627;28;20669;-79
2022/06/29 03:26:12;;;;;;;0.85;0.85;;;;;;;;;;5053434;28;20228;-79
2022/06/29 03:28:39;;;;;;;0.85;0.85;;;;;;;;;;5052777;28;20225;-79
2022/06/29 03:31:07;;;;;;;0.82;0.82;;;;;;;;;;5053128;28;20292;-79
2022/06/29 03:33:34;;;;;;;0.82;0.82;;;;;;;;;;5052121;28;20236;-78
2022/06/29 03:36:02;;;;;;;0.90;0.90;;;;;;;;;;5053024;28;20296;-78
2022/06/29 03:38:31;;;;;;;1.05;1.05;;;;;;;;;;5053260;28;20236;-78
2022/06/29 03:40:59;;;;;;;0.80;0.80;;;;;;;;;;5051332;28;20293;-78
2022/06/29 03:43:26;;;;;;;1.52;0.60;;;;;;;;;;5051794;28;20639;-78
2022/06/29 03:45:54;;;;;;;0.57;0.57;;;;;;;;;;5052685;28;20284;-80
2022/06/29 03:48:21;;;;;;;1.00;1.00;;;;;;;;;;5052518;28;20308;-79
2022/06/29 03:50:49;;;;;;;0.90;0.90;;;;;;;;;;5052560;28;20699;-79
2022/06/29 03:53:16;;;;;;;0.98;0.98;;;;;;;;;;5051579;28;20304;-79
2022/06/29 03:55:45;;;;;;;1.23;1.02;;;;;;;;;;5051817;28;20284;-79
2022/06/29 03:58:13;;;;;;;1.48;1.38;;;;;;;;;;5052699;28;20705;-79
2022/06/29 04:00:40;;;;;;;1.58;1.48;;;;;;;;;;5052696;28;20289;-79
2022/06/29 04:03:08;;;;;;;0.80;0.80;;;;;;;;;;5052028;28;20284;-79
2022/06/29 04:05:35;;;;;;;1.25;1.15;;;;;;;;;;5051906;28;20206;-79
2022/06/29 04:08:03;;;;;;;1.02;1.00;;;;;;;;;;5051887;28;20305;-79
2022/06/29 04:10:31;;;;;;;0.70;0.68;;;;;;;;;;5052368;28;20289;-79
2022/06/29 04:12:59;;;;;;;1.05;1.05;;;;;;;;;;5050044;28;20312;-79
2022/06/29 04:15:27;;;;;;;1.50;1.30;;;;;;;;;;5052016;28;20285;-79
2022/06/29 04:17:54;;;;;;;0.93;0.93;;;;;;;;;;5051787;28;20709;-79
2022/06/29 04:23:07;;;;;;;2.33;0.90;;;;;;;;;;5051856;28;20217;-79
2022/06/29 04:25:34;;;;;;;0.80;0.80;;;;;;;;;;5052089;28;20291;-79
2022/06/29 04:28:06;;;;;;;0.63;0.63;;;;;;;;;;5051773;28;20228;-79
2022/06/29 04:30:33;;;;;;;0.68;0.68;;;;;;;;;;5052297;28;20680;-79
2022/06/29 04:33:01;;;;;;;0.90;0.90;;;;;;;;;;5052056;28;20292;-79
2022/06/29 04:35:28;;;;;;;0.98;0.98;;;;;;;;;;5052359;28;20208;-79
2022/06/29 04:37:56;;;;;;;0.90;0.90;;;;;;;;;;5051747;28;20288;-79
2022/06/29 04:40:23;;;;;;;0.80;0.80;;;;;;;;;;5051799;28;20292;-79
2022/06/29 04:42:51;;;;;;;0.75;0.75;;;;;;;;;;5050976;28;20732;-79
2022/06/29 04:48:06;;;;;;;0.75;0.75;;;;;;;;;;5052435;28;20279;-79
2022/06/29 04:50:33;;;;;;;0.90;0.90;;;;;;;;;;5052589;28;20576;-79
2022/06/29 04:53:01;;;;;;;0.77;0.77;;;;;;;;;;5050680;28;20197;-79
2022/06/29 04:55:29;;;;;;;0.90;0.90;;;;;;;;;;5050704;28;20201;-78
2022/06/29 04:57:57;;;;;;;1.00;1.00;;;;;;;;;;5051673;28;20290;-78
2022/06/29 05:00:26;;;;;;;1.10;1.10;;;;;;;;;;5051620;28;20284;-80
2022/06/29 05:02:53;;;;;;;1.20;1.02;;;;;;;;;;5050766;28;20208;-79
2022/06/29 05:05:21;;;;;;;1.10;0.90;;;;;;;;;;5051190;28;20642;-79
2022/06/29 05:07:48;;;;;;;0.90;0.90;;;;;;;;;;5050933;28;20685;-79
2022/06/29 05:10:16;;;;;;;0.90;0.90;;;;;;;;;;5051579;28;20293;-79
2022/06/29 05:12:44;;;;;;;1.20;1.10;;;;;;;;;;5049552;28;20211;-78
2022/06/29 05:15:11;;;;;;;0.80;0.80;;;;;;;;;;5050991;28;20764;-78
2022/06/29 05:17:40;;;;;;;0.75;0.75;;;;;;;;;;5050681;28;20285;-79
2022/06/29 05:20:11;;;;;;;0.98;0.98;;;;;;;;;;5054097;28;20742;-82
2022/06/29 05:22:39;;;;;;;0.90;0.90;;;;;;;;;;5053422;28;20205;-82
2022/06/29 05:25:08;;;;;;;0.80;0.80;;;;;;;;;;5054180;28;20226;-82
2022/06/29 05:27:35;;;;;;;0.88;0.88;;;;;;;;;;5059908;28;20244;-84
2022/06/29 05:30:03;;;;;;;1.08;1.02;;;;;;;;;;5076161;28;20212;-83
2022/06/29 05:32:31;;;;;;;0.80;0.80;;;;;;;;;;5075400;28;20220;-83
2022/06/29 05:34:59;;;;;;;1.00;1.00;;;;;;;;;;5075915;28;20226;-82
2022/06/29 05:37:27;;;;;;;0.95;0.95;;;;;;;;;;5067859;28;20210;-83
2022/06/29 05:39:54;;;;;;;1.02;1.02;;;;;;;;;;5061463;28;20217;-83
2022/06/29 05:42:22;;;;;;;1.48;1.38;;;;;;;;;;5060349;28;20212;-84
2022/06/29 05:44:50;;;;;;;1.00;1.00;;;;;;;;;;5058944;28;20676;-83
2022/06/29 05:47:17;;;;;;;1.65;1.27;;;;;;;;;;5059634;28;20237;-82
2022/06/29 05:49:45;;;;;;;0.93;0.93;;;;;;;;;;5058981;28;20261;-84
2022/06/29 05:52:14;;;;;;;1.10;1.10;;;;;;;;;;5058774;28;20635;-82
2022/06/29 05:54:42;;;;;;;0.70;0.70;;;;;;;;;;5059302;28;20245;-83
2022/06/29 05:57:09;;;;;;;1.10;1.00;;;;;;;;;;5058997;28;20233;-83
2022/06/29 05:59:37;;;;;;;0.70;0.70;;;;;;;;;;5059445;28;20260;-83
2022/06/29 06:02:05;;;;;;;1.00;1.00;;;;;;;;;;5057616;28;20233;-82
2022/06/29 06:04:32;;;;;;;1.08;1.02;;;;;;;;;;5059236;28;20233;-83
2022/06/29 06:07:00;;;;;;;0.90;0.90;;;;;;;;;;5058643;28;20198;-82
2022/06/29 06:09:29;;;;;;;1.13;1.13;;;;;;;;;;5057710;28;20257;-82
2022/06/29 06:11:56;;;;;;;1.10;1.10;;;;;;;;;;5056226;28;20256;-83
2022/06/29 06:14:24;;;;;;;1.08;1.00;;;;;;;;;;5057975;28;20264;-81
2022/06/29 06:16:52;;;;;;;0.82;0.82;;;;;;;;;;5058189;28;20650;-82
2022/06/29 06:19:19;;;;;;;1.08;1.08;;;;;;;;;;5088954;23;20256;-81
2022/06/29 06:21:47;;;;;;;3.13;1.40;;;;;;;;;;5072928;28;20644;-80
2022/06/29 06:24:14;;;;;;;1.45;1.35;;;;;;;;;;5075263;28;20752;-81
2022/06/29 06:26:43;;;;;;;1.90;1.38;;;;;;;;;;5074966;28;20295;-81
2022/06/29 06:29:11;;;;;;;1.05;1.00;;;;;;;;;;5074440;28;20633;-81
2022/06/29 06:31:38;;;;;;;1.10;1.10;;;;;;;;;;5074003;28;20297;-81
2022/06/29 06:34:06;;;;;;;1.00;1.00;;;;;;;;;;5074446;28;20288;-81
2022/06/29 06:36:34;;;;;;;1.23;1.13;;;;;;;;;;5074500;28;20236;-80
2022/06/29 06:39:01;;;;;;;1.20;1.20;;;;;;;;;;5072862;28;20312;-80
2022/06/29 06:41:28;;;;;;;1.40;1.30;;;;;;;;;;5073593;28;20237;-80
2022/06/29 06:43:58;;;;;;;1.20;1.20;;;;;;;;;;5073340;28;20262;-81
2022/06/29 06:46:27;;;;;;;1.95;1.83;;;;;;;;;;5074564;28;20193;-79
2022/06/29 06:48:54;;;;;;;1.60;1.50;;;;;;;;;;5074190;28;20303;-80
2022/06/29 06:51:24;;;;;;;1.20;1.20;;;;;;;;;;5074271;28;20288;-80
2022/06/29 06:53:52;;;;;;;1.20;1.20;;;;;;;;;;5073573;28;20207;-80
2022/06/29 06:56:19;;;;;;;1.10;1.10;;;;;;;;;;5073879;28;20320;-80
2022/06/29 06:58:47;;;;;;;1.00;1.00;;;;;;;;;;5073995;28;20252;-78
2022/06/29 07:01:16;;;;;;;1.60;1.50;;;;;;;;;;5073681;28;20297;-77
2022/06/29 07:03:44;;;;;;;1.20;1.20;;;;;;;;;;5064882;28;20625;-78
2022/06/29 07:06:12;;;;;;;1.55;1.45;;;;;;;;;;5073446;28;20291;-78
2022/06/29 07:08:41;;;;;;;1.48;1.38;;;;;;;;;;5073707;28;20225;-77
2022/06/29 07:11:09;;;;;;;1.27;1.27;;;;;;;;;;5073605;28;20207;-78
2022/06/29 07:13:38;;;;;;;1.85;1.75;;;;;;;;;;5071584;28;20660;-79
2022/06/29 07:16:06;;;;;;;1.42;1.33;;;;;;;;;;5072727;28;20231;-78
2022/06/29 07:18:36;;;;;;;1.77;1.67;;;;;;;;;;5072773;28;20312;-78
2022/06/29 07:21:04;;;;;;;2.80;1.80;;;;;;;;;;5073064;28;20212;-78
2022/06/29 07:23:31;;;;;;;1.88;1.60;;;;;;;;;;5072507;28;20201;-79
2022/06/29 07:25:59;;;;;;;1.30;1.30;;;;;;;;;;5073098;28;20205;-79
2022/06/29 07:28:26;;;;;;;2.42;1.80;;;;;;;;;;5072887;28;20303;-78
2022/06/29 07:30:54;;;;;;;2.33;1.73;;;;;;;;;;5073021;28;20292;-79
2022/06/29 07:33:21;;;;;;;1.73;1.63;;;;;;;;;;5072164;28;20717;-78
2022/06/29 07:35:50;;;;;;;1.48;1.38;;;;;;;;;;5072755;28;20312;-78
2022/06/29 07:38:19;;;;;;;1.58;1.48;;;;;;;;;;5073078;28;20311;-78
2022/06/29 07:40:46;;;;;;;1.67;1.58;;;;;;;;;;5073020;28;20772;-78
2022/06/29 07:43:14;;;;;;;1.80;1.70;;;;;;;;;;5072550;28;20205;-78
2022/06/29 07:45:42;;;;;;;1.80;1.70;;;;;;;;;;5072772;28;20228;-78
2022/06/29 07:48:10;;;;;;;1.80;1.70;;;;;;;;;;5072856;28;20641;-78
2022/06/29 07:50:38;;;;;;;3.05;1.80;;;;;;;;;;5072849;28;20283;-78
2022/06/29 07:53:07;;;;;;;2.30;2.00;;;;;;;;;;5072570;28;20287;-78
2022/06/29 07:55:34;;;;;;;1.90;1.80;;;;;;;;;;5072641;28;20319;-80
2022/06/29 07:58:02;;;;;;;2.45;1.88;;;;;;;;;;5072346;28;20292;-80
2022/06/29 08:00:29;;;;;;;2.08;1.98;;;;;;;;;;5072469;28;20288;-78
2022/06/29 08:02:57;;;;;;;2.17;2.08;;;;;;;;;;5071932;28;20205;-77
2022/06/29 08:05:24;;;;;;;1.83;1.73;;;;;;;;;;5072492;28;20235;-78
2022/06/29 08:07:52;;;;;;;2.10;2.00;;;;;;;;;;5072486;28;20278;-82
2022/06/29 08:10:21;;;;;;;2.50;2.30;;;;;;;;;;5073145;28;20260;-79
2022/06/29 08:12:49;;;;;;;2.53;2.33;;;;;;;;;;5072394;28;20240;-79
2022/06/29 08:15:17;;;;;;;1.95;1.80;;;;;;;;;;5073960;28;20232;-79
2022/06/29 08:17:45;;;;;;;2.13;1.92;;;;;;;;;;5074815;28;20648;-79
2022/06/29 08:20:13;;;;;;;1.88;1.77;;;;;;;;;;5074210;28;20260;-80
2022/06/29 08:22:41;;;;;;;2.05;1.40;;;;;;;;;;5072597;28;20392;-79
2022/06/29 08:25:10;;;;;;;1.80;1.70;;;;;;;;;;5072414;28;20209;-78
2022/06/29 08:27:40;;;;;;;2.47;2.28;;;;;;;;;;5073023;28;20240;-79
2022/06/29 08:30:10;;;;;;;2.78;2.50;;;;;;;;;;5072859;28;20227;-78
2022/06/29 08:32:39;;;;;;;2.20;2.00;;;;;;;;;;5071636;28;20284;-78
2022/06/29 08:35:08;;;;;;;2.20;2.10;;;;;;;;;;5072765;28;20208;-79
2022/06/29 08:37:36;;;;;;;2.20;2.10;;;;;;;;;;5072670;28;20318;-78
2022/06/29 08:40:05;;;;;;;2.92;2.05;;;;;;;;;;5072707;28;20224;-79
2022/06/29 08:42:33;;;;;;;3.55;2.50;;;;;;;;;;5071709;28;20197;-78
2022/06/29 08:45:02;;;;;;;2.67;2.47;;;;;;;;;;5072329;28;20204;-79
2022/06/29 08:47:29;;;;;;;2.30;2.20;;;;;;;;;;5072648;28;20235;-78
2022/06/29 08:49:57;;;;;;;2.30;2.20;;;;;;;;;;5071877;28;20799;-78
2022/06/29 08:52:26;;;;;;;2.08;1.98;;;;;;;;;;5071752;28;20233;-78
2022/06/29 08:54:55;;;;;;;2.55;2.38;;;;;;;;;;5072187;28;20250;-78
2022/06/29 08:57:23;;;;;;;2.40;2.30;;;;;;;;;;5071654;28;20220;-79
2022/06/29 08:59:55;;;;;;;2.58;2.13;;;;;;;;;;5070905;28;20221;-78
2022/06/29 09:02:24;;;;;;;4.65;2.38;;;;;;;;;;5071685;28;20612;-78
2022/06/29 09:04:54;;;;;;;2.40;2.30;;;;;;;;;;5072219;28;20232;-79
2022/06/29 09:07:21;;;;;;;1.90;1.77;;;;;;;;;;5072605;28;20205;-79
2022/06/29 09:09:59;;;;;;;2.40;2.25;;;;;;;;;;5071639;28;20303;-79
2022/06/29 09:12:27;;;;;;;2.55;2.45;;;;;;;;;;5070237;28;20205;-81
2022/06/29 09:14:55;;;;;;;3.00;2.65;;;;;;;;;;5072199;28;20203;-79
2022/06/29 09:17:24;;;;;;;2.53;2.33;;;;;;;;;;5071043;28;20224;-76
2022/06/29 09:19:54;;;;;;;2.45;2.35;;;;;;;;;;5071370;28;20319;-78
2022/06/29 09:22:22;;;;;;;2.92;2.72;;;;;;;;;;5071372;28;20218;-78
2022/06/29 09:24:51;;;;;;;2.65;2.53;;;;;;;;;;5071573;28;20288;-79
2022/06/29 09:27:19;;;;;;;2.38;2.17;;;;;;;;;;5071587;28;20772;-78
2022/06/29 09:29:47;;;;;;;5.95;2.33;;;;;;;;;;5071486;28;20225;-78
2022/06/29 09:32:17;;;;;;;3.22;3.03;;;;;;;;;;5070730;28;20209;-78
2022/06/29 09:34:49;;;;;;;2.45;2.25;;;;;;;;;;5071890;28;20236;-79
2022/06/29 09:37:18;;;;;;;2.22;2.13;;;;;;;;;;5071703;28;20220;-77
2022/06/29 09:39:47;;;;;;;2.47;2.28;;;;;;;;;;5071597;28;20259;-78
2022/06/29 09:42:17;;;;;;;2.70;2.50;;;;;;;;;;5070664;28;20197;-79
2022/06/29 09:44:46;;;;;;;2.13;2.03;;;;;;;;;;5071227;28;20700;-79
2022/06/29 09:47:16;;;;;;;2.60;2.40;;;;;;;;;;5074615;28;20235;-79
2022/06/29 09:49:46;;;;;;;2.50;2.38;;;;;;;;;;5081687;28;20307;-78
2022/06/29 09:52:15;;;;;;;3.53;2.40;;;;;;;;;;5083920;28;20225;-80
2022/06/29 09:54:52;;;;;;;2.38;2.28;;;;;;;;;;5080870;28;20215;-79
2022/06/29 09:57:23;;;;;;;2.58;2.47;;;;;;;;;;5076194;28;20252;-81
2022/06/29 10:02:42;;;;;;;2.47;2.38;;;;;;;;;;5074333;28;20293;-80
2022/06/29 10:05:13;;;;;;;2.97;2.78;;;;;;;;;;5076089;28;20597;-82
2022/06/29 10:07:43;;;;;;;2.95;2.75;;;;;;;;;;5074913;28;20287;-82
2022/06/29 10:10:13;;;;;;;2.58;2.47;;;;;;;;;;5074712;28;20346;-82
2022/06/29 10:16:07;;;;;;;2.70;2.58;;;;;;;;;;5077705;28;20209;-82
2022/06/29 10:18:49;;;;;;;2.45;2.35;;;;;;;;;;5078406;28;20235;-81
2022/06/29 10:21:20;;;;;;;2.45;2.25;;;;;;;;;;5077398;28;20232;-82
2022/06/29 10:23:49;;;;;;;2.25;2.15;;;;;;;;;;5077143;28;20205;-80
2022/06/29 10:26:43;;;;;;;2.78;2.67;;;;;;;;;;5078050;28;20240;-82
2022/06/29 10:29:34;;;;;;;2.60;2.47;;;;;;;;;;5076673;28;20221;-82
2022/06/29 10:32:16;;;;;;;2.80;2.60;;;;;;;;;;5078100;28;20296;-81
2022/06/29 10:37:34;;;;;;;3.00;2.80;;;;;;;;;;5077222;28;20235;-82
2022/06/29 10:40:05;;;;;;;3.03;2.40;;;;;;;;;;5077253;28;20312;-81
2022/06/29 10:45:25;;;;;;;2.70;2.50;;;;;;;;;;5076884;28;20576;-79
2022/06/29 10:48:16;;;;;;;2.67;2.47;;;;;;;;;;5076650;28;20197;-79
2022/06/29 10:50:45;;;;;;;2.60;2.50;;;;;;;;;;5075213;28;20205;-78
2022/06/29 10:53:16;;;;;;;2.60;2.50;;;;;;;;;;5074506;28;20582;-79
2022/06/29 10:55:46;;;;;;;2.72;2.63;;;;;;;;;;5074519;28;20292;-81
2022/06/29 10:58:14;;;;;;;2.92;2.72;;;;;;;;;;5074776;28;20751;-79
2022/06/29 11:00:44;;;;;;;3.28;2.90;;;;;;;;;;5074594;28;20659;-77
2022/06/29 11:03:14;;;;;;;2.80;2.60;;;;;;;;;;5074224;28;20201;-79
2022/06/29 11:14:06;;;;;;;2.95;2.75;;;;;;;;;;5074182;28;20327;-80
2022/06/29 11:16:36;;;;;;;3.15;2.85;;;;;;;;;;5072900;28;20208;-77
2022/06/29 11:19:04;;;;;;;2.30;2.20;;;;;;;;;;5073915;28;20235;-79
2022/06/29 11:21:33;;;;;;;3.15;2.95;;;;;;;;;;5074184;28;20285;-79
2022/06/29 11:24:06;;;;;;;2.60;2.40;;;;;;;;;;5073689;28;20204;-78
2022/06/29 11:26:35;;;;;;;2.65;2.42;;;;;;;;;;5074028;28;20269;-79
2022/06/29 11:29:04;;;;;;;2.60;2.50;;;;;;;;;;5074631;28;20216;-80
2022/06/29 11:31:31;;;;;;;2.78;2.58;;;;;;;;;;5073612;28;20254;-79
2022/06/29 11:34:00;;;;;;;2.58;2.45;;;;;;;;;;5073829;28;20287;-79
2022/06/29 11:36:29;;;;;;;2.50;2.40;;;;;;;;;;5073661;28;20685;-79
2022/06/29 11:39:07;;;;;;;2.78;2.67;;;;;;;;;;5073562;28;20221;-78
2022/06/29 11:44:27;;;;;;;2.22;2.13;;;;;;;;;;5072233;28;20579;-79
2022/06/29 11:46:55;;;;;;;1.90;1.80;;;;;;;;;;5072923;28;20244;-77
2022/06/29 11:49:36;;;;;;;2.47;2.38;;;;;;;;;;5073542;28;20227;-79
2022/06/29 11:52:08;;;;;;;2.72;2.33;;;;;;;;;;5073198;28;20245;-79
2022/06/29 11:54:39;;;;;;;2.65;2.55;;;;;;;;;;5073378;28;20278;-77
2022/06/29 11:57:10;;;;;;;2.38;2.28;;;;;;;;;;5073855;28;20296;-78
2022/06/29 11:59:39;;;;;;;1.80;1.70;;;;;;;;;;5072876;28;20218;-78
2022/06/29 12:02:07;;;;;;;2.30;2.20;;;;;;;;;;5072732;28;20209;-78
2022/06/29 12:04:37;;;;;;;2.60;2.50;;;;;;;;;;5074634;28;20224;-77
2022/06/29 12:07:09;;;;;;;2.92;2.72;;;;;;;;;;5074694;28;20209;-78
2022/06/29 12:09:40;;;;;;;2.40;2.25;;;;;;;;;;5075098;28;20258;-78
2022/06/29 12:12:09;;;;;;;2.40;2.30;;;;;;;;;;5071984;28;20208;-80
2022/06/29 12:14:38;;;;;;;2.40;2.30;;;;;;;;;;5073639;28;20228;-78
2022/06/29 12:17:07;;;;;;;2.00;1.90;;;;;;;;;;5073995;28;20208;-81
2022/06/29 12:19:35;;;;;;;1.90;1.80;;;;;;;;;;5096298;22;20319;-84
2022/06/29 12:22:02;;;;;;;2.08;1.98;;;;;;;;;;5073676;28;20573;-86
2022/06/29 12:24:30;;;;;;;1.90;1.80;;;;;;;;;;5073510;28;20288;-81
2022/06/29 12:26:59;;;;;;;2.17;2.08;;;;;;;;;;5074668;28;20197;-82
2022/06/29 12:29:26;;;;;;;3.00;1.90;;;;;;;;;;5074394;28;20216;-82
2022/06/29 12:31:54;;;;;;;1.80;1.70;;;;;;;;;;5074880;28;20220;-80
2022/06/29 12:34:22;;;;;;;1.85;1.75;;;;;;;;;;5074682;28;20205;-81
2022/06/29 12:36:51;;;;;;;19.45;2.83;;;;;;;;;;5075027;28;20627;-83
2022/06/29 12:39:19;;;;;;;2.45;2.35;;;;;;;;;;5074792;28;20233;-83
2022/06/29 12:41:46;;;;;;;2.17;2.08;;;;;;;;;;5074804;28;20201;-83
2022/06/29 12:44:15;;;;;;;1.88;1.77;;;;;;;;;;5075124;28;20236;-85
2022/06/29 12:46:43;;;;;;;1.92;1.83;;;;;;;;;;5075439;28;20257;-84
2022/06/29 12:49:10;;;;;;;1.70;1.60;;;;;;;;;;5075607;28;20274;-86
2022/06/29 12:51:38;;;;;;;1.75;1.67;;;;;;;;;;5075177;28;20240;-85
2022/06/29 12:54:06;;;;;;;1.83;1.73;;;;;;;;;;5076029;28;20204;-87
2022/06/29 12:56:33;;;;;;;2.30;2.10;;;;;;;;;;5074504;28;20232;-87
2022/06/29 12:59:01;;;;;;;2.35;2.15;;;;;;;;;;5075387;28;20252;-87
2022/06/29 13:01:30;;;;;;;1.98;1.88;;;;;;;;;;5075159;28;20228;-87
2022/06/29 13:03:57;;;;;;;2.22;1.98;;;;;;;;;;5074648;28;20243;-86
2022/06/29 13:06:25;;;;;;;2.38;2.20;;;;;;;;;;5074817;28;20636;-87
2022/06/29 13:08:52;;;;;;;1.90;1.80;;;;;;;;;;5075691;28;20225;-86
2022/06/29 13:11:20;;;;;;;1.92;1.83;;;;;;;;;;5075429;28;20205;-87
2022/06/29 13:13:47;;;;;;;1.75;1.65;;;;;;;;;;5075332;28;20232;-87
2022/06/29 13:16:15;;;;;;;1.50;1.40;;;;;;;;;;5075370;28;20681;-86
2022/06/29 13:18:44;;;;;;;1.42;1.40;;;;;;;;;;5076388;28;20267;-86
2022/06/29 13:21:11;;;;;;;1.80;1.70;;;;;;;;;;5075917;28;20204;-86
2022/06/29 13:23:39;;;;;;;2.03;1.90;;;;;;;;;;5076526;28;20611;-87
2022/06/29 13:26:07;;;;;;;1.90;1.80;;;;;;;;;;5076098;28;20198;-85
2022/06/29 13:28:38;;;;;;;1.90;1.80;;;;;;;;;;5076226;28;20242;-87
2022/06/29 13:31:06;;;;;;;1.60;1.50;;;;;;;;;;5076086;28;20192;-87
2022/06/29 13:33:33;;;;;;;2.10;2.00;;;;;;;;;;5075861;28;20585;-86
2022/06/29 13:36:02;;;;;;;2.42;2.25;;;;;;;;;;5075911;28;20243;-87
2022/06/29 13:38:29;;;;;;;1.90;1.80;;;;;;;;;;5076242;28;20252;-87
2022/06/29 13:40:57;;;;;;;1.92;1.83;;;;;;;;;;5075668;28;20696;-82
2022/06/29 13:43:24;;;;;;;2.38;2.17;;;;;;;;;;5073782;28;20288;-82
2022/06/29 13:45:52;;;;;;;1.90;1.80;;;;;;;;;;5074644;28;20681;-82
2022/06/29 13:48:19;;;;;;;1.80;1.70;;;;;;;;;;5077847;28;20259;-83
2022/06/29 13:50:48;;;;;;;2.47;2.38;;;;;;;;;;5077325;28;20232;-82
2022/06/29 13:53:17;;;;;;;2.17;2.08;;;;;;;;;;5077771;28;20205;-83
2022/06/29 13:55:45;;;;;;;2.50;2.40;;;;;;;;;;5078039;28;20293;-83
2022/06/29 13:58:12;;;;;;;2.17;2.08;;;;;;;;;;5077685;28;20561;-83
2022/06/29 14:00:40;;;;;;;3.53;1.90;;;;;;;;;;5076990;28;20311;-84
2022/06/29 14:03:08;;;;;;;2.10;2.00;;;;;;;;;;5078105;28;20205;-85
2022/06/29 14:05:36;;;;;;;4.13;3.72;;;;;;;;;;5080322;28;20204;-84
2022/06/29 14:08:03;;;;;;;3.67;3.35;;;;;;;;;;5080607;28;20712;-84
2022/06/29 14:10:32;;;;;;;2.72;2.53;;;;;;;;;;5080138;28;20231;-84
2022/06/29 14:13:00;;;;;;;2.22;2.13;;;;;;;;;;5079772;28;20259;-83
2022/06/29 14:15:27;;;;;;;2.38;2.28;;;;;;;;;;5079702;28;20569;-83
2022/06/29 14:17:55;;;;;;;3.05;2.75;;;;;;;;;;5078918;28;20242;-83
2022/06/29 14:20:23;;;;;;;3.67;3.47;;;;;;;;;;5079116;28;20323;-83
2022/06/29 14:22:50;;;;;;;3.25;2.80;;;;;;;;;;5079419;28;20197;-83
2022/06/29 14:25:18;;;;;;;3.05;2.85;;;;;;;;;;5080626;28;20209;-84
2022/06/29 14:27:47;;;;;;;3.22;3.08;;;;;;;;;;5080017;28;20648;-83
2022/06/29 14:30:15;;;;;;;2.90;2.67;;;;;;;;;;5079550;28;20232;-83
2022/06/29 14:32:43;;;;;;;3.10;2.90;;;;;;;;;;5080150;28;20224;-82
2022/06/29 14:35:12;;;;;;;3.40;3.10;;;;;;;;;;5078913;28;20205;-82
2022/06/29 14:37:40;;;;;;;2.53;2.42;;;;;;;;;;5079726;28;20302;-82
2022/06/29 14:40:09;;;;;;;2.85;2.63;;;;;;;;;;5079754;28;20217;-82
2022/06/29 14:42:37;;;;;;;2.53;2.42;;;;;;;;;;5079613;28;20201;-83
2022/06/29 14:45:07;;;;;;;2.78;2.58;;;;;;;;;;5079991;28;20258;-82
2022/06/29 14:47:35;;;;;;;2.38;2.28;;;;;;;;;;5080309;28;20221;-83
2022/06/29 14:50:03;;;;;;;3.30;3.10;;;;;;;;;;5079082;28;20224;-83
2022/06/29 14:52:33;;;;;;;3.58;3.25;;;;;;;;;;5079329;28;20197;-83
2022/06/29 14:55:01;;;;;;;4.57;4.22;;;;;;;;;;5079493;28;20186;-82
2022/06/29 14:57:29;;;;;;;3.40;3.20;;;;;;;;;;5079913;28;20270;-83
2022/06/29 14:59:58;;;;;;;3.47;3.28;;;;;;;;;;5078921;28;20231;-83
2022/06/29 15:02:26;;;;;;;3.35;3.15;;;;;;;;;;5080160;28;20233;-82
2022/06/29 15:04:54;;;;;;;2.92;2.72;;;;;;;;;;5080853;28;20708;-82
2022/06/29 15:07:21;;;;;;;3.03;2.83;;;;;;;;;;5079850;28;20259;-83
2022/06/29 15:09:49;;;;;;;3.42;3.22;;;;;;;;;;5078787;28;20212;-82
2022/06/29 15:12:17;;;;;;;3.85;3.65;;;;;;;;;;5079944;28;20228;-83
2022/06/29 15:14:44;;;;;;;4.22;3.92;;;;;;;;;;5079778;28;20340;-83
2022/06/29 15:17:12;;;;;;;4.25;3.95;;;;;;;;;;5080805;28;20197;-83
2022/06/29 15:19:41;;;;;;;4.85;4.20;;;;;;;;;;5080655;28;20225;-82
2022/06/29 15:22:08;;;;;;;3.70;3.40;;;;;;;;;;5079361;28;20201;-83
2022/06/29 15:24:36;;;;;;;3.80;3.50;;;;;;;;;;5079994;28;20240;-83